sensor_id;sensor_type;location;lat;lon;timestamp;P1;durP1;ratioP1;P2;durP2;ratioP2
4903;SDS011;2467;48.142;11.616;2023-04-03T00:00:08;9.90;;;9.00;;
4903;SDS011;2467;48.142;11.616;2023-04-03T00:00:41;9.85;;;8.80;;
4903;SDS011;2467;48.142;11.616;2023-04-03T00:01:13;9.88;;;8.98;;
4903;SDS011;2467;48.142;11.616;2023-04-03T00:01:46;9.77;;;8.93;;
4903;SDS011;2467;48.142;11.616;2023-04-03T00:02:18;7.95;;;7.30;;
4903;SDS011;2467;48.142;11.616;2023-04-03T00:02:50;8.88;;;8.10;;
4903;SDS011;2467;48.142;11.616;2023-04-03T00:03:24;8.52;;;7.72;;
4903;SDS011;2467;48.142;11.616;2023-04-03T00:03:56;11.65;;;9.65;;
4903;SDS011;2467;48.142;11.616;2023-04-03T00:04:28;8.30;;;7.50;;
4903;SDS011;2467;48.142;11.616;2023-04-03T00:05:01;8.70;;;7.90;;
4903;SDS011;2467;48.142;11.616;2023-04-03T00:05:33;8.00;;;7.30;;
4903;SDS011;2467;48.142;11.616;2023-04-03T00:06:06;9.50;;;8.65;;
4903;SDS011;2467;48.142;11.616;2023-04-03T00:06:39;8.40;;;7.47;;
4903;SDS011;2467;48.142;11.616;2023-04-03T00:07:11;9.15;;;8.20;;
4903;SDS011;2467;48.142;11.616;2023-04-03T00:07:43;8.20;;;7.50;;
4903;SDS011;2467;48.142;11.616;2023-04-03T00:08:16;8.10;;;7.32;;
4903;SDS011;2467;48.142;11.616;2023-04-03T00:08:48;7.28;;;6.75;;
4903;SDS011;2467;48.142;11.616;2023-04-03T00:09:20;7.80;;;7.10;;
4903;SDS011;2467;48.142;11.616;2023-04-03T00:09:53;9.30;;;8.60;;
4903;SDS011;2467;48.142;11.616;2023-04-03T00:10:25;10.95;;;8.60;;
4903;SDS011;2467;48.142;11.616;2023-04-03T00:10:57;9.13;;;8.43;;
4903;SDS011;2467;48.142;11.616;2023-04-03T00:11:30;11.05;;;7.90;;
4903;SDS011;2467;48.142;11.616;2023-04-03T00:12:02;8.07;;;7.38;;
4903;SDS011;2467;48.142;11.616;2023-04-03T00:12:34;8.30;;;7.50;;
4903;SDS011;2467;48.142;11.616;2023-04-03T00:13:07;8.20;;;7.22;;
4903;SDS011;2467;48.142;11.616;2023-04-03T00:13:40;8.27;;;7.57;;
4903;SDS011;2467;48.142;11.616;2023-04-03T00:14:12;8.00;;;7.25;;
4903;SDS011;2467;48.142;11.616;2023-04-03T00:14:44;9.70;;;8.70;;
4903;SDS011;2467;48.142;11.616;2023-04-03T00:15:16;9.80;;;8.95;;
4903;SDS011;2467;48.142;11.616;2023-04-03T00:15:48;8.30;;;7.70;;
4903;SDS011;2467;48.142;11.616;2023-04-03T00:16:21;8.38;;;7.63;;
4903;SDS011;2467;48.142;11.616;2023-04-03T00:16:53;8.20;;;7.50;;
4903;SDS011;2467;48.142;11.616;2023-04-03T00:17:25;7.95;;;7.35;;
4903;SDS011;2467;48.142;11.616;2023-04-03T00:17:58;7.45;;;6.85;;
4903;SDS011;2467;48.142;11.616;2023-04-03T00:18:30;8.75;;;8.02;;
4903;SDS011;2467;48.142;11.616;2023-04-03T00:19:03;7.70;;;7.10;;
4903;SDS011;2467;48.142;11.616;2023-04-03T00:19:34;8.60;;;7.80;;
4903;SDS011;2467;48.142;11.616;2023-04-03T00:20:07;8.38;;;7.68;;
4903;SDS011;2467;48.142;11.616;2023-04-03T00:20:40;8.45;;;7.70;;
4903;SDS011;2467;48.142;11.616;2023-04-03T00:21:13;9.27;;;7.45;;
4903;SDS011;2467;48.142;11.616;2023-04-03T00:21:46;8.82;;;8.02;;
4903;SDS011;2467;48.142;11.616;2023-04-03T00:22:19;7.88;;;7.13;;
4903;SDS011;2467;48.142;11.616;2023-04-03T00:22:51;10.07;;;7.30;;
4903;SDS011;2467;48.142;11.616;2023-04-03T00:23:23;9.07;;;8.27;;
4903;SDS011;2467;48.142;11.616;2023-04-03T00:23:55;8.65;;;7.82;;
4903;SDS011;2467;48.142;11.616;2023-04-03T00:24:27;8.18;;;7.47;;
4903;SDS011;2467;48.142;11.616;2023-04-03T00:24:59;8.15;;;7.45;;
4903;SDS011;2467;48.142;11.616;2023-04-03T00:25:32;8.90;;;8.10;;
4903;SDS011;2467;48.142;11.616;2023-04-03T00:26:04;8.57;;;7.88;;
4903;SDS011;2467;48.142;11.616;2023-04-03T00:26:37;8.27;;;7.65;;
4903;SDS011;2467;48.142;11.616;2023-04-03T00:27:09;8.90;;;7.53;;
4903;SDS011;2467;48.142;11.616;2023-04-03T00:27:42;7.38;;;6.78;;
4903;SDS011;2467;48.142;11.616;2023-04-03T00:28:15;8.40;;;7.53;;
4903;SDS011;2467;48.142;11.616;2023-04-03T00:28:47;9.00;;;8.15;;
4903;SDS011;2467;48.142;11.616;2023-04-03T00:29:18;8.23;;;7.43;;
4903;SDS011;2467;48.142;11.616;2023-04-03T00:29:51;8.43;;;7.57;;
4903;SDS011;2467;48.142;11.616;2023-04-03T00:30:23;8.38;;;7.63;;
4903;SDS011;2467;48.142;11.616;2023-04-03T00:30:55;9.30;;;8.30;;
4903;SDS011;2467;48.142;11.616;2023-04-03T00:31:28;9.20;;;8.38;;
4903;SDS011;2467;48.142;11.616;2023-04-03T00:32:00;8.60;;;6.95;;
4903;SDS011;2467;48.142;11.616;2023-04-03T00:32:32;8.15;;;7.47;;
4903;SDS011;2467;48.142;11.616;2023-04-03T00:33:05;7.85;;;7.10;;
4903;SDS011;2467;48.142;11.616;2023-04-03T00:33:37;6.85;;;6.35;;
4903;SDS011;2467;48.142;11.616;2023-04-03T00:34:09;8.55;;;7.82;;
4903;SDS011;2467;48.142;11.616;2023-04-03T00:34:42;8.00;;;7.30;;
4903;SDS011;2467;48.142;11.616;2023-04-03T00:35:13;7.15;;;6.65;;
4903;SDS011;2467;48.142;11.616;2023-04-03T00:35:47;9.43;;;8.63;;
4903;SDS011;2467;48.142;11.616;2023-04-03T00:36:20;8.65;;;7.93;;
4903;SDS011;2467;48.142;11.616;2023-04-03T00:36:53;7.85;;;7.25;;
4903;SDS011;2467;48.142;11.616;2023-04-03T00:37:25;8.32;;;7.60;;
4903;SDS011;2467;48.142;11.616;2023-04-03T00:37:57;8.27;;;7.43;;
4903;SDS011;2467;48.142;11.616;2023-04-03T00:38:30;8.07;;;7.40;;
4903;SDS011;2467;48.142;11.616;2023-04-03T00:39:02;7.90;;;7.28;;
4903;SDS011;2467;48.142;11.616;2023-04-03T00:39:34;8.48;;;7.78;;
4903;SDS011;2467;48.142;11.616;2023-04-03T00:40:08;8.98;;;8.18;;
4903;SDS011;2467;48.142;11.616;2023-04-03T00:40:41;8.25;;;7.50;;
4903;SDS011;2467;48.142;11.616;2023-04-03T00:41:14;8.80;;;7.95;;
4903;SDS011;2467;48.142;11.616;2023-04-03T00:41:47;8.20;;;7.10;;
4903;SDS011;2467;48.142;11.616;2023-04-03T00:42:19;8.43;;;7.63;;
4903;SDS011;2467;48.142;11.616;2023-04-03T00:42:51;7.60;;;6.90;;
4903;SDS011;2467;48.142;11.616;2023-04-03T00:43:27;8.90;;;8.10;;
4903;SDS011;2467;48.142;11.616;2023-04-03T00:43:59;9.52;;;8.63;;
4903;SDS011;2467;48.142;11.616;2023-04-03T00:45:53;8.75;;;7.00;;
4903;SDS011;2467;48.142;11.616;2023-04-03T00:46:26;8.10;;;7.30;;
4903;SDS011;2467;48.142;11.616;2023-04-03T00:46:58;6.90;;;6.20;;
4903;SDS011;2467;48.142;11.616;2023-04-03T00:47:30;7.97;;;7.28;;
4903;SDS011;2467;48.142;11.616;2023-04-03T00:48:03;11.40;;;7.88;;
4903;SDS011;2467;48.142;11.616;2023-04-03T00:48:39;7.00;;;6.40;;
4903;SDS011;2467;48.142;11.616;2023-04-03T00:49:13;8.88;;;7.63;;
4903;SDS011;2467;48.142;11.616;2023-04-03T00:49:45;10.38;;;7.45;;
4903;SDS011;2467;48.142;11.616;2023-04-03T00:50:18;7.57;;;6.88;;
4903;SDS011;2467;48.142;11.616;2023-04-03T00:50:50;8.90;;;8.20;;
4903;SDS011;2467;48.142;11.616;2023-04-03T00:51:25;7.95;;;7.30;;
4903;SDS011;2467;48.142;11.616;2023-04-03T00:51:58;7.50;;;6.80;;
4903;SDS011;2467;48.142;11.616;2023-04-03T00:52:30;7.25;;;6.72;;
4903;SDS011;2467;48.142;11.616;2023-04-03T00:53:03;7.22;;;6.63;;
4903;SDS011;2467;48.142;11.616;2023-04-03T00:53:38;7.70;;;7.03;;
4903;SDS011;2467;48.142;11.616;2023-04-03T00:54:14;9.10;;;8.30;;
4903;SDS011;2467;48.142;11.616;2023-04-03T00:54:47;7.30;;;6.75;;
4903;SDS011;2467;48.142;11.616;2023-04-03T00:55:22;9.00;;;8.20;;
4903;SDS011;2467;48.142;11.616;2023-04-03T00:55:54;9.60;;;7.10;;
4903;SDS011;2467;48.142;11.616;2023-04-03T00:56:27;10.95;;;7.45;;
4903;SDS011;2467;48.142;11.616;2023-04-03T00:57:03;7.43;;;6.82;;
4903;SDS011;2467;48.142;11.616;2023-04-03T00:57:37;7.07;;;6.47;;
4903;SDS011;2467;48.142;11.616;2023-04-03T00:58:09;7.93;;;6.75;;
4903;SDS011;2467;48.142;11.616;2023-04-03T00:58:45;9.07;;;8.38;;
4903;SDS011;2467;48.142;11.616;2023-04-03T00:59:21;7.80;;;7.10;;
4903;SDS011;2467;48.142;11.616;2023-04-03T00:59:59;7.90;;;7.30;;
4903;SDS011;2467;48.142;11.616;2023-04-03T01:00:35;7.55;;;6.95;;
4903;SDS011;2467;48.142;11.616;2023-04-03T01:01:11;7.05;;;6.45;;
4903;SDS011;2467;48.142;11.616;2023-04-03T01:01:48;9.27;;;7.75;;
4903;SDS011;2467;48.142;11.616;2023-04-03T01:02:20;7.93;;;7.32;;
4903;SDS011;2467;48.142;11.616;2023-04-03T01:02:52;8.60;;;7.80;;
4903;SDS011;2467;48.142;11.616;2023-04-03T01:03:25;8.32;;;7.68;;
4903;SDS011;2467;48.142;11.616;2023-04-03T01:03:58;9.75;;;8.80;;
4903;SDS011;2467;48.142;11.616;2023-04-03T01:04:31;7.53;;;6.82;;
4903;SDS011;2467;48.142;11.616;2023-04-03T01:05:06;8.13;;;7.43;;
4903;SDS011;2467;48.142;11.616;2023-04-03T01:05:38;9.82;;;8.98;;
4903;SDS011;2467;48.142;11.616;2023-04-03T01:06:11;10.68;;;9.77;;
4903;SDS011;2467;48.142;11.616;2023-04-03T01:06:49;8.45;;;7.65;;
4903;SDS011;2467;48.142;11.616;2023-04-03T01:07:22;7.05;;;6.50;;
4903;SDS011;2467;48.142;11.616;2023-04-03T01:07:57;7.38;;;6.78;;
4903;SDS011;2467;48.142;11.616;2023-04-03T01:08:31;7.57;;;6.93;;
4903;SDS011;2467;48.142;11.616;2023-04-03T01:09:03;8.70;;;7.82;;
4903;SDS011;2467;48.142;11.616;2023-04-03T01:09:36;8.05;;;7.45;;
4903;SDS011;2467;48.142;11.616;2023-04-03T01:10:10;7.22;;;6.63;;
4903;SDS011;2467;48.142;11.616;2023-04-03T01:10:45;6.90;;;6.40;;
4903;SDS011;2467;48.142;11.616;2023-04-03T01:11:18;7.88;;;7.18;;
4903;SDS011;2467;48.142;11.616;2023-04-03T01:11:51;7.75;;;6.97;;
4903;SDS011;2467;48.142;11.616;2023-04-03T01:12:24;7.97;;;7.28;;
4903;SDS011;2467;48.142;11.616;2023-04-03T01:12:58;7.53;;;7.00;;
4903;SDS011;2467;48.142;11.616;2023-04-03T01:13:32;8.80;;;7.35;;
4903;SDS011;2467;48.142;11.616;2023-04-03T01:14:05;7.63;;;6.85;;
4903;SDS011;2467;48.142;11.616;2023-04-03T01:14:37;9.88;;;8.27;;
4903;SDS011;2467;48.142;11.616;2023-04-03T01:15:10;7.78;;;7.18;;
4903;SDS011;2467;48.142;11.616;2023-04-03T01:15:44;6.85;;;6.25;;
4903;SDS011;2467;48.142;11.616;2023-04-03T01:16:16;7.80;;;7.00;;
4903;SDS011;2467;48.142;11.616;2023-04-03T01:16:51;8.43;;;7.60;;
4903;SDS011;2467;48.142;11.616;2023-04-03T01:17:29;7.32;;;6.72;;
4903;SDS011;2467;48.142;11.616;2023-04-03T01:18:02;8.07;;;7.28;;
4903;SDS011;2467;48.142;11.616;2023-04-03T01:18:36;7.63;;;7.00;;
4903;SDS011;2467;48.142;11.616;2023-04-03T01:19:11;7.07;;;6.55;;
4903;SDS011;2467;48.142;11.616;2023-04-03T01:19:48;8.43;;;7.68;;
4903;SDS011;2467;48.142;11.616;2023-04-03T01:21:47;7.65;;;6.95;;
4903;SDS011;2467;48.142;11.616;2023-04-03T01:22:36;7.00;;;6.40;;
4903;SDS011;2467;48.142;11.616;2023-04-03T01:23:22;7.32;;;6.43;;
4903;SDS011;2467;48.142;11.616;2023-04-03T01:24:10;8.57;;;7.32;;
4903;SDS011;2467;48.142;11.616;2023-04-03T01:24:59;7.30;;;6.65;;
4903;SDS011;2467;48.142;11.616;2023-04-03T01:25:32;7.53;;;6.82;;
4903;SDS011;2467;48.142;11.616;2023-04-03T01:26:05;8.43;;;6.88;;
4903;SDS011;2467;48.142;11.616;2023-04-03T01:26:38;7.50;;;6.72;;
4903;SDS011;2467;48.142;11.616;2023-04-03T01:27:10;6.93;;;6.35;;
4903;SDS011;2467;48.142;11.616;2023-04-03T01:27:43;7.70;;;7.00;;
4903;SDS011;2467;48.142;11.616;2023-04-03T01:28:17;6.95;;;6.43;;
4903;SDS011;2467;48.142;11.616;2023-04-03T01:28:52;7.45;;;6.75;;
4903;SDS011;2467;48.142;11.616;2023-04-03T01:29:24;7.63;;;6.35;;
4903;SDS011;2467;48.142;11.616;2023-04-03T01:29:57;7.93;;;7.25;;
4903;SDS011;2467;48.142;11.616;2023-04-03T01:30:32;8.43;;;7.72;;
4903;SDS011;2467;48.142;11.616;2023-04-03T01:31:10;7.18;;;6.60;;
4903;SDS011;2467;48.142;11.616;2023-04-03T01:31:50;7.90;;;7.20;;
4903;SDS011;2467;48.142;11.616;2023-04-03T01:32:23;6.78;;;6.18;;
4903;SDS011;2467;48.142;11.616;2023-04-03T01:32:55;7.82;;;6.93;;
4903;SDS011;2467;48.142;11.616;2023-04-03T01:33:28;6.90;;;6.32;;
4903;SDS011;2467;48.142;11.616;2023-04-03T01:34:01;8.00;;;7.18;;
4903;SDS011;2467;48.142;11.616;2023-04-03T01:34:33;7.03;;;6.45;;
4903;SDS011;2467;48.142;11.616;2023-04-03T01:35:06;7.43;;;6.82;;
4903;SDS011;2467;48.142;11.616;2023-04-03T01:35:40;8.23;;;6.75;;
4903;SDS011;2467;48.142;11.616;2023-04-03T01:36:13;7.43;;;6.82;;
4903;SDS011;2467;48.142;11.616;2023-04-03T01:36:46;7.15;;;6.55;;
4903;SDS011;2467;48.142;11.616;2023-04-03T01:37:19;9.30;;;7.10;;
4903;SDS011;2467;48.142;11.616;2023-04-03T01:37:51;7.20;;;6.63;;
4903;SDS011;2467;48.142;11.616;2023-04-03T01:38:23;7.55;;;6.85;;
4903;SDS011;2467;48.142;11.616;2023-04-03T01:38:56;7.85;;;7.15;;
4903;SDS011;2467;48.142;11.616;2023-04-03T01:39:30;7.05;;;6.45;;
4903;SDS011;2467;48.142;11.616;2023-04-03T01:40:03;7.70;;;7.00;;
4903;SDS011;2467;48.142;11.616;2023-04-03T01:40:36;7.70;;;7.10;;
4903;SDS011;2467;48.142;11.616;2023-04-03T01:41:09;7.03;;;6.50;;
4903;SDS011;2467;48.142;11.616;2023-04-03T01:41:41;9.00;;;7.32;;
4903;SDS011;2467;48.142;11.616;2023-04-03T01:42:13;7.38;;;6.80;;
4903;SDS011;2467;48.142;11.616;2023-04-03T01:42:47;7.15;;;6.55;;
4903;SDS011;2467;48.142;11.616;2023-04-03T01:43:18;7.85;;;7.15;;
4903;SDS011;2467;48.142;11.616;2023-04-03T01:43:51;7.22;;;6.63;;
4903;SDS011;2467;48.142;11.616;2023-04-03T01:44:23;7.53;;;6.82;;
4903;SDS011;2467;48.142;11.616;2023-04-03T01:44:56;7.00;;;6.40;;
4903;SDS011;2467;48.142;11.616;2023-04-03T01:45:28;8.35;;;7.63;;
4903;SDS011;2467;48.142;11.616;2023-04-03T01:46:00;7.63;;;6.90;;
4903;SDS011;2467;48.142;11.616;2023-04-03T01:46:33;7.10;;;6.40;;
4903;SDS011;2467;48.142;11.616;2023-04-03T01:47:06;7.00;;;6.40;;
4903;SDS011;2467;48.142;11.616;2023-04-03T01:47:38;11.77;;;6.88;;
4903;SDS011;2467;48.142;11.616;2023-04-03T01:48:11;7.05;;;6.47;;
4903;SDS011;2467;48.142;11.616;2023-04-03T01:48:44;8.68;;;7.45;;
4903;SDS011;2467;48.142;11.616;2023-04-03T01:49:16;8.18;;;7.47;;
4903;SDS011;2467;48.142;11.616;2023-04-03T01:49:49;7.05;;;6.50;;
4903;SDS011;2467;48.142;11.616;2023-04-03T01:50:21;7.15;;;6.65;;
4903;SDS011;2467;48.142;11.616;2023-04-03T01:50:53;7.13;;;6.45;;
4903;SDS011;2467;48.142;11.616;2023-04-03T01:51:26;7.85;;;7.13;;
4903;SDS011;2467;48.142;11.616;2023-04-03T01:51:58;7.82;;;7.20;;
4903;SDS011;2467;48.142;11.616;2023-04-03T01:52:30;8.07;;;7.38;;
4903;SDS011;2467;48.142;11.616;2023-04-03T01:53:02;7.88;;;7.13;;
4903;SDS011;2467;48.142;11.616;2023-04-03T01:53:34;7.50;;;6.80;;
4903;SDS011;2467;48.142;11.616;2023-04-03T01:54:06;7.53;;;6.82;;
4903;SDS011;2467;48.142;11.616;2023-04-03T01:54:39;7.47;;;6.75;;
4903;SDS011;2467;48.142;11.616;2023-04-03T01:55:11;7.57;;;6.85;;
4903;SDS011;2467;48.142;11.616;2023-04-03T01:55:43;7.25;;;6.65;;
4903;SDS011;2467;48.142;11.616;2023-04-03T01:56:16;8.20;;;7.40;;
4903;SDS011;2467;48.142;11.616;2023-04-03T01:56:48;7.18;;;6.57;;
4903;SDS011;2467;48.142;11.616;2023-04-03T01:57:19;8.30;;;7.55;;
4903;SDS011;2467;48.142;11.616;2023-04-03T01:57:52;8.48;;;7.78;;
4903;SDS011;2467;48.142;11.616;2023-04-03T01:58:24;7.57;;;6.88;;
4903;SDS011;2467;48.142;11.616;2023-04-03T01:58:56;7.40;;;6.72;;
4903;SDS011;2467;48.142;11.616;2023-04-03T01:59:29;7.75;;;7.00;;
4903;SDS011;2467;48.142;11.616;2023-04-03T02:00:01;7.18;;;6.57;;
4903;SDS011;2467;48.142;11.616;2023-04-03T02:00:33;7.32;;;6.63;;
4903;SDS011;2467;48.142;11.616;2023-04-03T02:01:07;7.50;;;6.75;;
4903;SDS011;2467;48.142;11.616;2023-04-03T02:01:39;7.72;;;7.13;;
4903;SDS011;2467;48.142;11.616;2023-04-03T02:02:13;7.47;;;6.93;;
4903;SDS011;2467;48.142;11.616;2023-04-03T02:02:46;7.43;;;6.07;;
4903;SDS011;2467;48.142;11.616;2023-04-03T02:03:18;7.07;;;6.45;;
4903;SDS011;2467;48.142;11.616;2023-04-03T02:03:50;9.85;;;6.75;;
4903;SDS011;2467;48.142;11.616;2023-04-03T02:04:22;6.75;;;6.25;;
4903;SDS011;2467;48.142;11.616;2023-04-03T02:04:54;6.88;;;6.35;;
4903;SDS011;2467;48.142;11.616;2023-04-03T02:05:26;7.22;;;6.55;;
4903;SDS011;2467;48.142;11.616;2023-04-03T02:05:59;7.30;;;6.60;;
4903;SDS011;2467;48.142;11.616;2023-04-03T02:06:32;7.28;;;6.65;;
4903;SDS011;2467;48.142;11.616;2023-04-03T02:07:03;7.45;;;6.85;;
4903;SDS011;2467;48.142;11.616;2023-04-03T02:07:36;5.88;;;5.38;;
4903;SDS011;2467;48.142;11.616;2023-04-03T02:08:08;6.85;;;6.25;;
4903;SDS011;2467;48.142;11.616;2023-04-03T02:08:40;7.40;;;6.85;;
4903;SDS011;2467;48.142;11.616;2023-04-03T02:09:13;8.50;;;7.70;;
4903;SDS011;2467;48.142;11.616;2023-04-03T02:09:45;7.05;;;6.40;;
4903;SDS011;2467;48.142;11.616;2023-04-03T02:10:18;7.53;;;6.85;;
4903;SDS011;2467;48.142;11.616;2023-04-03T02:10:50;7.32;;;6.65;;
4903;SDS011;2467;48.142;11.616;2023-04-03T02:11:22;7.05;;;6.45;;
4903;SDS011;2467;48.142;11.616;2023-04-03T02:11:55;6.72;;;6.20;;
4903;SDS011;2467;48.142;11.616;2023-04-03T02:12:27;7.30;;;6.65;;
4903;SDS011;2467;48.142;11.616;2023-04-03T02:12:58;8.02;;;7.32;;
4903;SDS011;2467;48.142;11.616;2023-04-03T02:13:31;7.43;;;6.82;;
4903;SDS011;2467;48.142;11.616;2023-04-03T02:14:03;7.20;;;6.65;;
4903;SDS011;2467;48.142;11.616;2023-04-03T02:14:35;7.07;;;6.53;;
4903;SDS011;2467;48.142;11.616;2023-04-03T02:15:08;7.38;;;6.53;;
4903;SDS011;2467;48.142;11.616;2023-04-03T02:15:41;7.03;;;6.38;;
4903;SDS011;2467;48.142;11.616;2023-04-03T02:16:13;7.88;;;7.20;;
4903;SDS011;2467;48.142;11.616;2023-04-03T02:16:45;8.00;;;7.30;;
4903;SDS011;2467;48.142;11.616;2023-04-03T02:17:19;7.38;;;6.78;;
4903;SDS011;2467;48.142;11.616;2023-04-03T02:17:51;6.32;;;5.82;;
4903;SDS011;2467;48.142;11.616;2023-04-03T02:18:24;7.50;;;6.80;;
4903;SDS011;2467;48.142;11.616;2023-04-03T02:18:56;6.72;;;6.22;;
4903;SDS011;2467;48.142;11.616;2023-04-03T02:19:28;6.32;;;5.82;;
4903;SDS011;2467;48.142;11.616;2023-04-03T02:20:01;7.40;;;6.80;;
4903;SDS011;2467;48.142;11.616;2023-04-03T02:20:34;6.78;;;6.15;;
4903;SDS011;2467;48.142;11.616;2023-04-03T02:21:06;6.95;;;6.45;;
4903;SDS011;2467;48.142;11.616;2023-04-03T02:21:39;6.50;;;5.90;;
4903;SDS011;2467;48.142;11.616;2023-04-03T02:22:11;7.03;;;6.53;;
4903;SDS011;2467;48.142;11.616;2023-04-03T02:22:43;8.88;;;7.28;;
4903;SDS011;2467;48.142;11.616;2023-04-03T02:23:16;9.02;;;5.88;;
4903;SDS011;2467;48.142;11.616;2023-04-03T02:23:47;7.20;;;6.60;;
4903;SDS011;2467;48.142;11.616;2023-04-03T02:24:19;6.97;;;6.38;;
4903;SDS011;2467;48.142;11.616;2023-04-03T02:24:52;6.88;;;6.28;;
4903;SDS011;2467;48.142;11.616;2023-04-03T02:25:24;6.47;;;5.63;;
4903;SDS011;2467;48.142;11.616;2023-04-03T02:26:02;6.75;;;6.25;;
4903;SDS011;2467;48.142;11.616;2023-04-03T02:26:39;7.95;;;7.20;;
4903;SDS011;2467;48.142;11.616;2023-04-03T02:27:11;6.38;;;5.88;;
4903;SDS011;2467;48.142;11.616;2023-04-03T02:27:43;7.00;;;6.40;;
4903;SDS011;2467;48.142;11.616;2023-04-03T02:28:16;7.20;;;6.50;;
4903;SDS011;2467;48.142;11.616;2023-04-03T02:28:48;6.90;;;6.20;;
4903;SDS011;2467;48.142;11.616;2023-04-03T02:29:19;10.85;;;7.97;;
4903;SDS011;2467;48.142;11.616;2023-04-03T02:29:51;8.38;;;7.68;;
4903;SDS011;2467;48.142;11.616;2023-04-03T02:30:24;6.65;;;6.15;;
4903;SDS011;2467;48.142;11.616;2023-04-03T02:30:57;6.57;;;6.05;;
4903;SDS011;2467;48.142;11.616;2023-04-03T02:31:29;6.30;;;5.82;;
4903;SDS011;2467;48.142;11.616;2023-04-03T02:32:02;8.55;;;5.40;;
4903;SDS011;2467;48.142;11.616;2023-04-03T02:32:35;7.20;;;5.90;;
4903;SDS011;2467;48.142;11.616;2023-04-03T02:33:07;8.20;;;6.18;;
4903;SDS011;2467;48.142;11.616;2023-04-03T02:33:40;7.15;;;6.55;;
4903;SDS011;2467;48.142;11.616;2023-04-03T02:34:12;8.25;;;5.95;;
4903;SDS011;2467;48.142;11.616;2023-04-03T02:34:44;6.78;;;6.20;;
4903;SDS011;2467;48.142;11.616;2023-04-03T02:35:17;6.43;;;5.88;;
4903;SDS011;2467;48.142;11.616;2023-04-03T02:35:51;6.90;;;6.38;;
4903;SDS011;2467;48.142;11.616;2023-04-03T02:36:24;6.15;;;5.65;;
4903;SDS011;2467;48.142;11.616;2023-04-03T02:36:57;5.78;;;5.38;;
4903;SDS011;2467;48.142;11.616;2023-04-03T02:37:29;6.35;;;5.82;;
4903;SDS011;2467;48.142;11.616;2023-04-03T02:38:01;7.00;;;6.40;;
4903;SDS011;2467;48.142;11.616;2023-04-03T02:38:34;6.15;;;5.75;;
4903;SDS011;2467;48.142;11.616;2023-04-03T02:39:06;6.47;;;5.97;;
4903;SDS011;2467;48.142;11.616;2023-04-03T02:39:38;6.07;;;5.60;;
4903;SDS011;2467;48.142;11.616;2023-04-03T02:40:11;6.45;;;5.95;;
4903;SDS011;2467;48.142;11.616;2023-04-03T02:40:43;6.40;;;5.90;;
4903;SDS011;2467;48.142;11.616;2023-04-03T02:41:15;7.57;;;6.88;;
4903;SDS011;2467;48.142;11.616;2023-04-03T02:41:48;6.10;;;5.60;;
4903;SDS011;2467;48.142;11.616;2023-04-03T02:42:19;5.88;;;5.47;;
4903;SDS011;2467;48.142;11.616;2023-04-03T02:42:51;6.10;;;5.50;;
4903;SDS011;2467;48.142;11.616;2023-04-03T02:43:24;6.95;;;6.35;;
4903;SDS011;2467;48.142;11.616;2023-04-03T02:43:56;6.00;;;5.50;;
4903;SDS011;2467;48.142;11.616;2023-04-03T02:44:28;5.65;;;5.20;;
4903;SDS011;2467;48.142;11.616;2023-04-03T02:45:01;6.47;;;5.97;;
4903;SDS011;2467;48.142;11.616;2023-04-03T02:45:32;6.30;;;5.70;;
4903;SDS011;2467;48.142;11.616;2023-04-03T02:46:04;5.88;;;5.30;;
4903;SDS011;2467;48.142;11.616;2023-04-03T02:46:38;7.95;;;5.28;;
4903;SDS011;2467;48.142;11.616;2023-04-03T02:47:10;6.72;;;6.18;;
4903;SDS011;2467;48.142;11.616;2023-04-03T02:47:43;5.65;;;5.15;;
4903;SDS011;2467;48.142;11.616;2023-04-03T02:48:16;5.88;;;5.38;;
4903;SDS011;2467;48.142;11.616;2023-04-03T02:48:48;6.07;;;5.20;;
4903;SDS011;2467;48.142;11.616;2023-04-03T02:49:20;6.15;;;5.65;;
4903;SDS011;2467;48.142;11.616;2023-04-03T02:49:53;6.47;;;5.40;;
4903;SDS011;2467;48.142;11.616;2023-04-03T02:50:24;6.13;;;5.53;;
4903;SDS011;2467;48.142;11.616;2023-04-03T02:50:56;5.40;;;5.00;;
4903;SDS011;2467;48.142;11.616;2023-04-03T02:51:29;5.47;;;5.00;;
4903;SDS011;2467;48.142;11.616;2023-04-03T02:52:01;6.15;;;5.65;;
4903;SDS011;2467;48.142;11.616;2023-04-03T02:52:33;5.78;;;5.28;;
4903;SDS011;2467;48.142;11.616;2023-04-03T02:53:06;6.05;;;5.55;;
4903;SDS011;2467;48.142;11.616;2023-04-03T02:53:38;5.50;;;5.00;;
4903;SDS011;2467;48.142;11.616;2023-04-03T02:54:10;5.20;;;4.80;;
4903;SDS011;2467;48.142;11.616;2023-04-03T02:54:43;5.38;;;4.90;;
4903;SDS011;2467;48.142;11.616;2023-04-03T02:55:15;5.78;;;5.25;;
4903;SDS011;2467;48.142;11.616;2023-04-03T02:55:47;4.80;;;4.38;;
4903;SDS011;2467;48.142;11.616;2023-04-03T02:56:20;5.40;;;5.00;;
4903;SDS011;2467;48.142;11.616;2023-04-03T02:56:52;5.90;;;5.35;;
4903;SDS011;2467;48.142;11.616;2023-04-03T02:57:24;5.47;;;4.97;;
4903;SDS011;2467;48.142;11.616;2023-04-03T02:57:57;5.22;;;4.70;;
4903;SDS011;2467;48.142;11.616;2023-04-03T02:58:29;5.18;;;4.70;;
4903;SDS011;2467;48.142;11.616;2023-04-03T02:59:01;5.13;;;4.72;;
4903;SDS011;2467;48.142;11.616;2023-04-03T02:59:34;4.70;;;4.40;;
4903;SDS011;2467;48.142;11.616;2023-04-03T03:00:06;5.05;;;4.65;;
4903;SDS011;2467;48.142;11.616;2023-04-03T03:00:40;5.85;;;5.15;;
4903;SDS011;2467;48.142;11.616;2023-04-03T03:01:13;5.15;;;4.75;;
4903;SDS011;2467;48.142;11.616;2023-04-03T03:01:45;5.32;;;4.88;;
4903;SDS011;2467;48.142;11.616;2023-04-03T03:02:17;6.05;;;5.55;;
4903;SDS011;2467;48.142;11.616;2023-04-03T03:02:52;5.38;;;4.97;;
4903;SDS011;2467;48.142;11.616;2023-04-03T03:03:24;5.65;;;5.25;;
4903;SDS011;2467;48.142;11.616;2023-04-03T03:03:55;5.72;;;5.30;;
4903;SDS011;2467;48.142;11.616;2023-04-03T03:04:28;4.75;;;4.45;;
4903;SDS011;2467;48.142;11.616;2023-04-03T03:05:00;5.75;;;5.25;;
4903;SDS011;2467;48.142;11.616;2023-04-03T03:05:32;5.95;;;5.47;;
4903;SDS011;2467;48.142;11.616;2023-04-03T03:06:06;5.30;;;4.80;;
4903;SDS011;2467;48.142;11.616;2023-04-03T03:06:39;5.25;;;4.75;;
4903;SDS011;2467;48.142;11.616;2023-04-03T03:07:13;5.72;;;5.32;;
4903;SDS011;2467;48.142;11.616;2023-04-03T03:07:46;5.30;;;4.90;;
4903;SDS011;2467;48.142;11.616;2023-04-03T03:08:18;4.88;;;4.47;;
4903;SDS011;2467;48.142;11.616;2023-04-03T03:08:51;4.63;;;4.32;;
4903;SDS011;2467;48.142;11.616;2023-04-03T03:09:24;5.05;;;4.65;;
4903;SDS011;2467;48.142;11.616;2023-04-03T03:09:56;5.05;;;4.63;;
4903;SDS011;2467;48.142;11.616;2023-04-03T03:10:28;5.03;;;4.53;;
4903;SDS011;2467;48.142;11.616;2023-04-03T03:11:01;6.00;;;5.50;;
4903;SDS011;2467;48.142;11.616;2023-04-03T03:11:34;5.20;;;4.75;;
4903;SDS011;2467;48.142;11.616;2023-04-03T03:12:06;4.70;;;4.32;;
4903;SDS011;2467;48.142;11.616;2023-04-03T03:12:39;4.80;;;4.40;;
4903;SDS011;2467;48.142;11.616;2023-04-03T03:13:11;5.28;;;4.78;;
4903;SDS011;2467;48.142;11.616;2023-04-03T03:13:43;5.40;;;4.90;;
4903;SDS011;2467;48.142;11.616;2023-04-03T03:14:16;5.25;;;4.95;;
4903;SDS011;2467;48.142;11.616;2023-04-03T03:14:48;5.28;;;4.75;;
4903;SDS011;2467;48.142;11.616;2023-04-03T03:15:19;6.82;;;4.40;;
4903;SDS011;2467;48.142;11.616;2023-04-03T03:15:52;4.85;;;4.53;;
4903;SDS011;2467;48.142;11.616;2023-04-03T03:16:24;5.30;;;4.82;;
4903;SDS011;2467;48.142;11.616;2023-04-03T03:16:56;5.20;;;4.68;;
4903;SDS011;2467;48.142;11.616;2023-04-03T03:17:29;5.55;;;5.15;;
4903;SDS011;2467;48.142;11.616;2023-04-03T03:18:02;5.90;;;5.00;;
4903;SDS011;2467;48.142;11.616;2023-04-03T03:18:34;5.75;;;4.55;;
4903;SDS011;2467;48.142;11.616;2023-04-03T03:19:08;4.22;;;3.92;;
4903;SDS011;2467;48.142;11.616;2023-04-03T03:19:39;5.00;;;4.60;;
4903;SDS011;2467;48.142;11.616;2023-04-03T03:20:12;4.07;;;3.75;;
4903;SDS011;2467;48.142;11.616;2023-04-03T03:20:45;5.22;;;4.82;;
4903;SDS011;2467;48.142;11.616;2023-04-03T03:21:17;5.25;;;4.85;;
4903;SDS011;2467;48.142;11.616;2023-04-03T03:21:50;5.10;;;4.60;;
4903;SDS011;2467;48.142;11.616;2023-04-03T03:22:22;5.18;;;4.78;;
4903;SDS011;2467;48.142;11.616;2023-04-03T03:22:54;6.03;;;4.57;;
4903;SDS011;2467;48.142;11.616;2023-04-03T03:23:27;5.18;;;4.78;;
4903;SDS011;2467;48.142;11.616;2023-04-03T03:23:59;5.10;;;4.20;;